Time;durP1;ratioP1;P1;durP2;ratioP2;P2;SDS_P1;SDS_P2;PMS_P1;PMS_P2;Temp;Humidity;BMP_temperature;BMP_pressure;BME280_temperature;BME280_humidity;BME280_pressure;Samples;Min_cycle;Max_cycle;Signal;HPM_P1;HPM_P2
2023/10/09 00:01:53;;;;;;;1.50;0.97;;;15.80;98.20;;;;;;5006125;28;20475;-78
2023/10/09 00:04:21;;;;;;;1.50;1.00;;;15.80;98.20;;;;;;5000725;28;21153;-78
2023/10/09 00:06:48;;;;;;;1.50;0.90;;;15.70;98.20;;;;;;5003619;28;20914;-78
2023/10/09 00:09:25;;;;;;;1.50;0.90;;;15.70;98.20;;;;;;5014692;28;20464;-79
2023/10/09 00:11:57;;;;;;;1.50;0.90;;;15.70;98.20;;;;;;5007209;28;20561;-77
2023/10/09 00:14:24;;;;;;;1.60;1.20;;;15.70;98.20;;;;;;5010347;28;20584;-78
2023/10/09 00:16:56;;;;;;;1.50;0.97;;;15.70;98.20;;;;;;5007913;28;20479;-78
2023/10/09 00:19:30;;;;;;;1.50;0.90;;;15.70;98.20;;;;;;5015521;28;20547;-78
2023/10/09 00:21:58;;;;;;;1.50;0.93;;;15.70;98.20;;;;;;5003935;28;20551;-77
2023/10/09 00:24:25;;;;;;;1.50;1.00;;;15.70;98.20;;;;;;5007149;28;20565;-78
2023/10/09 00:26:55;;;;;;;1.50;1.00;;;15.70;98.20;;;;;;5003116;28;20551;-78
2023/10/09 00:29:22;;;;;;;1.50;0.90;;;15.70;98.20;;;;;;5014654;28;20642;-77
2023/10/09 00:31:55;;;;;;;1.50;1.00;;;15.60;98.20;;;;;;4997814;28;20520;-78
2023/10/09 00:34:26;;;;;;;1.50;1.00;;;15.60;98.20;;;;;;5000912;28;20492;-78
2023/10/09 00:36:53;;;;;;;1.50;1.00;;;15.60;98.20;;;;;;5003009;28;20941;-77
2023/10/09 00:39:42;;;;;;;1.50;1.00;;;15.60;98.20;;;;;;5007848;28;20461;-77
2023/10/09 00:42:12;;;;;;;1.50;1.10;;;15.60;98.20;;;;;;5002352;28;20533;-78
2023/10/09 00:44:41;;;;;;;1.50;1.00;;;15.50;98.20;;;;;;5013437;28;20515;-78
2023/10/09 00:47:22;;;;;;;1.50;0.90;;;15.50;98.20;;;;;;5003027;28;20998;-77
2023/10/09 00:50:00;;;;;;;1.50;1.10;;;15.40;98.20;;;;;;5008013;28;20470;-77
2023/10/09 00:52:39;;;;;;;1.50;1.00;;;15.40;98.20;;;;;;5003464;28;20543;-77
2023/10/09 00:55:13;;;;;;;1.50;1.00;;;15.40;98.20;;;;;;4994349;28;20564;-78
2023/10/09 00:57:41;;;;;;;1.50;1.00;;;15.40;98.20;;;;;;5011045;28;20486;-78
2023/10/09 01:00:32;;;;;;;1.50;1.00;;;15.40;98.20;;;;;;5000500;28;20479;-78
2023/10/09 01:03:11;;;;;;;1.50;0.93;;;15.40;98.20;;;;;;5009407;28;20479;-77
2023/10/09 01:05:45;;;;;;;1.50;1.03;;;15.40;98.20;;;;;;5000085;28;20491;-78
2023/10/09 01:08:16;;;;;;;1.50;1.00;;;15.40;98.20;;;;;;4993738;28;20626;-78
2023/10/09 01:10:53;;;;;;;1.50;1.00;;;15.40;98.20;;;;;;5009381;28;20498;-78
2023/10/09 01:13:20;;;;;;;1.50;1.00;;;15.40;98.20;;;;;;4994900;28;20949;-77
2023/10/09 01:15:48;;;;;;;1.50;0.93;;;15.40;98.20;;;;;;5000295;28;20460;-78
2023/10/09 01:18:15;;;;;;;1.50;1.10;;;15.40;98.20;;;;;;5006953;28;20464;-78
2023/10/09 01:20:45;;;;;;;1.50;1.00;;;15.40;98.20;;;;;;5005721;28;20460;-78
2023/10/09 01:23:13;;;;;;;1.50;1.00;;;15.40;98.20;;;;;;4993184;28;20486;-78
2023/10/09 01:25:44;;;;;;;1.50;1.00;;;15.40;98.20;;;;;;5007737;28;20484;-78
2023/10/09 01:28:15;;;;;;;1.50;1.00;;;15.40;98.20;;;;;;4990935;28;20489;-78
2023/10/09 01:30:44;;;;;;;1.50;1.00;;;15.40;98.20;;;;;;5009095;28;20467;-77
2023/10/09 01:33:21;;;;;;;1.50;1.00;;;15.50;98.20;;;;;;5012121;28;20974;-78
2023/10/09 01:35:50;;;;;;;1.50;1.10;;;15.50;98.20;;;;;;4998425;28;20517;-78
2023/10/09 01:38:24;;;;;;;1.50;1.00;;;15.50;98.20;;;;;;5021938;28;20754;-77
2023/10/09 01:40:51;;;;;;;1.50;1.00;;;15.50;98.20;;;;;;4994266;28;20514;-78
2023/10/09 01:43:19;;;;;;;1.50;1.00;;;15.50;98.20;;;;;;4999834;28;20518;-79
2023/10/09 01:45:46;;;;;;;1.50;1.00;;;15.60;98.20;;;;;;5008052;28;20866;-78
2023/10/09 01:48:23;;;;;;;1.50;0.90;;;15.60;98.20;;;;;;4996331;28;20483;-78
2023/10/09 01:50:50;;;;;;;1.50;1.13;;;15.60;98.20;;;;;;4995320;28;20463;-77
2023/10/09 01:53:18;;;;;;;1.50;1.00;;;15.60;98.20;;;;;;5019949;28;20461;-77
2023/10/09 01:55:46;;;;;;;1.50;1.00;;;15.60;98.20;;;;;;5002959;28;20452;-77
2023/10/09 01:58:24;;;;;;;1.50;1.00;;;15.70;98.20;;;;;;4996953;28;20476;-77
2023/10/09 02:00:54;;;;;;;1.50;1.10;;;15.60;98.20;;;;;;4994480;28;20464;-77
2023/10/09 02:03:26;;;;;;;1.50;1.00;;;15.70;98.20;;;;;;5020746;28;20468;-77
2023/10/09 02:05:59;;;;;;;1.50;1.00;;;15.70;98.20;;;;;;4997352;28;20495;-78
2023/10/09 02:08:27;;;;;;;1.50;1.00;;;15.70;98.20;;;;;;5001968;28;20970;-78
2023/10/09 02:10:56;;;;;;;1.50;1.00;;;15.70;98.20;;;;;;4997869;28;20543;-77
2023/10/09 02:13:29;;;;;;;1.50;1.00;;;15.70;98.20;;;;;;5005743;28;20475;-78
2023/10/09 02:16:12;;;;;;;1.50;1.00;;;15.70;98.20;;;;;;4991338;28;20466;-78
2023/10/09 02:18:53;;;;;;;1.50;1.00;;;15.70;98.20;;;;;;5019194;28;21144;-77
2023/10/09 02:21:32;;;;;;;1.50;1.00;;;15.70;98.20;;;;;;5000261;28;20474;-78
2023/10/09 02:24:04;;;;;;;1.50;1.00;;;15.70;98.20;;;;;;5015271;28;20856;-78
2023/10/09 02:27:06;;;;;;;1.50;1.00;;;15.70;98.20;;;;;;5001600;28;20818;-78
2023/10/09 02:29:23;;;;;;;1.50;0.90;;;15.70;98.20;;;;;;5013643;28;20447;-79
2023/10/09 02:31:54;;;;;;;1.50;1.00;;;15.70;98.20;;;;;;4993432;28;21068;-78
2023/10/09 02:34:24;;;;;;;1.50;0.90;;;15.70;98.20;;;;;;5000803;28;20487;-78
2023/10/09 02:36:57;;;;;;;1.50;0.90;;;15.70;98.20;;;;;;5004365;23;20514;-80
2023/10/09 02:39:24;;;;;;;1.50;1.00;;;15.70;98.20;;;;;;4992041;28;20528;-79
2023/10/09 02:42:01;;;;;;;1.50;1.00;;;15.70;98.20;;;;;;4970865;28;20827;-78
2023/10/09 02:44:31;;;;;;;1.50;0.90;;;15.60;98.20;;;;;;4985252;28;20468;-79
2023/10/09 02:46:58;;;;;;;1.50;1.00;;;15.60;98.20;;;;;;4988578;28;20684;-79
2023/10/09 02:49:26;;;;;;;1.50;1.00;;;15.60;98.20;;;;;;4997862;28;20473;-79
2023/10/09 02:51:53;;;;;;;1.50;1.00;;;15.60;98.20;;;;;;4973272;28;20540;-79
2023/10/09 02:54:34;;;;;;;1.50;1.00;;;15.60;98.20;;;;;;4985321;28;20519;-79
2023/10/09 02:57:08;;;;;;;1.50;1.00;;;15.50;98.20;;;;;;4994756;28;20510;-78
2023/10/09 02:59:37;;;;;;;1.50;1.00;;;15.50;98.20;;;;;;4991294;28;20544;-78
2023/10/09 03:02:03;;;;;;;1.50;1.00;;;15.50;98.20;;;;;;4976356;28;20501;-78
2023/10/09 03:04:30;;;;;;;1.50;1.00;;;15.50;98.20;;;;;;4986277;28;20541;-78
2023/10/09 03:06:57;;;;;;;1.50;1.00;;;15.50;98.20;;;;;;4988286;28;21266;-78
2023/10/09 03:09:27;;;;;;;1.50;1.00;;;15.50;98.20;;;;;;4991476;28;21025;-79
2023/10/09 03:11:55;;;;;;;1.47;0.97;;;15.50;98.20;;;;;;4986061;28;20512;-78
2023/10/09 03:14:26;;;;;;;1.50;1.00;;;15.50;98.20;;;;;;4992267;28;20491;-79
2023/10/09 03:16:53;;;;;;;1.50;1.00;;;15.50;98.20;;;;;;4986489;28;20557;-78
2023/10/09 03:19:19;;;;;;;1.50;1.00;;;15.50;98.20;;;;;;4993020;28;20568;-79
2023/10/09 03:21:46;;;;;;;1.50;0.90;;;15.50;98.20;;;;;;4972207;28;20473;-78
2023/10/09 03:24:13;;;;;;;1.47;1.00;;;15.50;98.20;;;;;;4986412;28;20468;-78
2023/10/09 03:26:40;;;;;;;1.50;1.00;;;15.50;98.20;;;;;;4984240;28;20551;-79
2023/10/09 03:29:09;;;;;;;1.50;1.00;;;15.50;98.20;;;;;;4995607;28;20461;-79
2023/10/09 03:31:38;;;;;;;1.50;1.00;;;15.50;98.20;;;;;;4981805;28;20914;-78
2023/10/09 03:34:05;;;;;;;1.50;1.00;;;15.50;98.20;;;;;;4999681;28;20993;-78
2023/10/09 03:36:37;;;;;;;1.50;1.00;;;15.50;98.20;;;;;;4981556;28;20480;-78
2023/10/09 03:39:18;;;;;;;1.50;1.00;;;15.50;98.20;;;;;;5000277;28;20465;-78
2023/10/09 03:41:46;;;;;;;1.50;1.00;;;15.50;98.20;;;;;;4990491;28;20689;-79
2023/10/09 03:44:13;;;;;;;1.50;1.00;;;15.50;98.20;;;;;;5000309;28;20468;-79
2023/10/09 03:46:44;;;;;;;1.50;0.90;;;15.50;98.20;;;;;;4987310;28;20502;-79
2023/10/09 03:49:12;;;;;;;1.50;1.00;;;15.50;98.20;;;;;;4999409;28;20492;-79
2023/10/09 03:51:41;;;;;;;1.50;1.00;;;15.50;98.20;;;;;;4991852;28;20563;-79
2023/10/09 03:54:08;;;;;;;1.50;1.00;;;15.50;98.20;;;;;;5007058;28;20461;-79
2023/10/09 03:56:35;;;;;;;1.50;1.00;;;15.50;98.20;;;;;;4989243;28;20930;-78
2023/10/09 03:59:04;;;;;;;1.50;1.00;;;15.50;98.20;;;;;;5003311;28;20465;-78
2023/10/09 04:01:38;;;;;;;1.50;1.00;;;15.60;98.20;;;;;;4991029;28;21070;-79
2023/10/09 04:04:10;;;;;;;1.50;1.00;;;15.60;98.20;;;;;;5009091;28;20540;-79
2023/10/09 04:06:37;;;;;;;1.50;1.00;;;15.60;98.20;;;;;;4986886;28;20484;-78
2023/10/09 04:09:26;;;;;;;1.50;1.00;;;15.50;98.20;;;;;;5001711;28;20507;-78
2023/10/09 04:12:13;;;;;;;1.50;1.00;;;15.50;98.20;;;;;;4986750;28;20484;-78
2023/10/09 04:14:49;;;;;;;1.50;0.90;;;15.50;98.20;;;;;;4994065;28;20567;-79
2023/10/09 04:22:50;;;;;;;1.50;1.00;;;15.60;98.20;;;;;;4994141;28;20530;-79
2023/10/09 04:25:25;;;;;;;1.50;1.00;;;15.60;98.20;;;;;;4989660;28;20480;-79
2023/10/09 04:27:59;;;;;;;1.50;1.00;;;15.60;98.20;;;;;;5003097;28;20593;-79
2023/10/09 04:30:27;;;;;;;1.50;0.90;;;15.60;98.20;;;;;;4990781;28;20991;-79
2023/10/09 04:32:59;;;;;;;1.50;1.03;;;15.60;98.20;;;;;;4974247;28;20893;-79
2023/10/09 04:35:32;;;;;;;1.50;1.00;;;15.60;98.20;;;;;;4990629;28;20495;-79
2023/10/09 04:38:05;;;;;;;1.50;1.00;;;15.70;98.20;;;;;;5007196;28;20601;-79
2023/10/09 04:40:51;;;;;;;1.50;1.00;;;15.70;98.20;;;;;;4992944;28;20465;-79
2023/10/09 04:43:21;;;;;;;1.50;1.00;;;15.70;98.20;;;;;;4976056;28;20473;-79
2023/10/09 04:46:06;;;;;;;1.50;1.00;;;15.70;98.20;;;;;;4987083;28;20500;-79
2023/10/09 04:48:38;;;;;;;1.50;1.00;;;15.70;98.20;;;;;;4991344;28;20523;-79
2023/10/09 04:51:34;;;;;;;1.50;0.90;;;15.70;98.20;;;;;;4985821;28;20519;-79
2023/10/09 04:54:12;;;;;;;1.50;1.00;;;15.70;98.20;;;;;;5001489;28;20472;-79
2023/10/09 04:56:51;;;;;;;1.50;1.00;;;15.70;98.20;;;;;;4992968;28;20476;-79
2023/10/09 04:59:19;;;;;;;1.50;0.90;;;15.70;98.20;;;;;;5004097;28;20464;-79
2023/10/09 05:01:57;;;;;;;1.50;1.00;;;15.70;98.20;;;;;;4992293;28;21018;-80
2023/10/09 05:04:41;;;;;;;1.50;1.00;;;15.70;98.20;;;;;;4999871;28;20515;-80
2023/10/09 05:07:25;;;;;;;1.50;1.00;;;15.70;98.20;;;;;;4986636;28;20490;-79
2023/10/09 05:12:33;;;;;;;1.50;0.93;;;15.70;98.20;;;;;;4993202;28;21106;-78
2023/10/09 05:15:08;;;;;;;1.50;1.00;;;15.70;98.20;;;;;;4991401;28;20491;-79
2023/10/09 05:17:39;;;;;;;1.50;1.00;;;15.70;98.20;;;;;;4993944;28;20523;-78
2023/10/09 05:25:55;;;;;;;1.50;1.00;;;15.70;98.20;;;;;;4988766;28;20489;-78
2023/10/09 05:28:48;;;;;;;1.50;0.90;;;15.70;98.20;;;;;;4979047;28;20480;-78
2023/10/09 05:31:44;;;;;;;1.50;0.90;;;15.70;98.20;;;;;;4984607;28;20942;-78
2023/10/09 05:34:02;;;;;;;1.50;1.00;;;15.70;98.20;;;;;;5000016;28;20957;-78
2023/10/09 05:36:35;;;;;;;1.50;1.00;;;15.70;98.20;;;;;;4984101;28;20468;-78
2023/10/09 05:39:40;;;;;;;1.50;0.90;;;15.70;98.20;;;;;;4994214;28;20457;-78
2023/10/09 05:42:09;;;;;;;1.50;1.00;;;15.70;98.20;;;;;;4985528;28;20490;-78
2023/10/09 05:47:31;;;;;;;1.50;1.10;;;15.80;98.20;;;;;;4990790;28;20494;-78
2023/10/09 05:50:34;;;;;;;1.50;0.90;;;15.80;98.20;;;;;;4990148;28;20464;-78
2023/10/09 05:57:09;;;;;;;1.50;1.00;;;15.80;98.20;;;;;;4987342;28;20858;-77
2023/10/09 06:04:15;;;;;;;1.50;1.00;;;15.90;98.20;;;;;;4995915;28;20440;-77
2023/10/09 06:06:45;;;;;;;1.50;1.00;;;15.90;98.20;;;;;;4985296;28;20596;-78
2023/10/09 06:14:57;;;;;;;1.50;1.00;;;16.00;98.20;;;;;;4990033;28;20463;-78
2023/10/09 06:17:26;;;;;;;1.50;1.00;;;16.00;98.20;;;;;;4993942;28;20510;-79
2023/10/09 06:19:58;;;;;;;1.50;1.00;;;16.00;98.20;;;;;;4993293;28;20471;-79
2023/10/09 06:25:16;;;;;;;1.50;1.00;;;16.10;98.20;;;;;;4990900;28;20924;-79
2023/10/09 06:28:01;;;;;;;1.50;1.00;;;16.10;98.20;;;;;;4998337;28;20564;-79
2023/10/09 06:30:28;;;;;;;1.50;1.00;;;16.10;98.20;;;;;;4988509;28;20892;-79
2023/10/09 06:33:19;;;;;;;1.50;1.00;;;16.20;98.20;;;;;;4996850;28;20686;-79
2023/10/09 06:35:53;;;;;;;1.50;1.00;;;16.20;98.20;;;;;;4990567;28;20732;-79
2023/10/09 06:38:23;;;;;;;1.50;0.90;;;16.20;98.20;;;;;;4979214;28;20480;-79
2023/10/09 06:43:47;;;;;;;1.50;0.93;;;16.30;98.20;;;;;;5003850;28;20520;-79
2023/10/09 06:46:43;;;;;;;1.50;0.93;;;16.40;98.20;;;;;;4985577;28;20516;-80
2023/10/09 06:52:08;;;;;;;1.50;1.00;;;16.50;98.20;;;;;;4977886;28;20480;-79
2023/10/09 06:54:37;;;;;;;1.50;1.00;;;16.50;98.20;;;;;;4991906;28;20471;-79
2023/10/09 06:57:43;;;;;;;1.50;1.00;;;16.60;98.20;;;;;;4992494;28;20465;-79
2023/10/09 07:02:56;;;;;;;1.50;1.00;;;16.60;98.20;;;;;;4923006;28;20576;-80
2023/10/09 07:05:31;;;;;;;1.50;1.00;;;16.70;98.20;;;;;;4993471;28;20485;-79
2023/10/09 07:08:28;;;;;;;1.50;0.90;;;16.70;98.20;;;;;;5009839;28;21025;-79
2023/10/09 07:10:44;;;;;;;1.50;1.00;;;16.70;98.20;;;;;;5001823;28;20449;-79
2023/10/09 07:13:11;;;;;;;1.50;0.90;;;16.70;98.20;;;;;;5007770;28;20519;-79
2023/10/09 07:18:49;;;;;;;1.50;0.90;;;16.80;98.20;;;;;;4980599;28;20561;-79
2023/10/09 07:21:18;;;;;;;1.50;1.00;;;16.80;98.20;;;;;;4987592;28;21056;-80
2023/10/09 07:23:49;;;;;;;1.50;0.93;;;16.80;98.20;;;;;;5004281;28;20477;-80
2023/10/09 07:26:23;;;;;;;1.50;1.00;;;16.90;98.20;;;;;;4989542;28;20475;-79
2023/10/09 07:28:49;;;;;;;1.60;1.07;;;16.90;98.20;;;;;;5007193;28;20469;-79
2023/10/09 07:31:26;;;;;;;1.50;0.97;;;17.00;98.20;;;;;;4989764;28;20769;-80
2023/10/09 07:34:06;;;;;;;1.50;1.00;;;17.10;98.20;;;;;;5006608;28;20457;-80
2023/10/09 07:36:37;;;;;;;1.50;1.00;;;17.20;98.20;;;;;;4990342;28;20468;-80
2023/10/09 07:39:13;;;;;;;1.50;1.00;;;17.30;98.20;;;;;;5005014;28;20475;-79
2023/10/09 07:41:44;;;;;;;1.50;0.90;;;17.40;98.20;;;;;;4991350;28;20949;-79
2023/10/09 07:44:34;;;;;;;1.50;0.93;;;17.50;98.20;;;;;;5002862;28;20476;-79
2023/10/09 07:47:18;;;;;;;1.50;1.00;;;17.60;98.20;;;;;;4996027;28;20570;-79
2023/10/09 07:49:52;;;;;;;1.53;1.00;;;17.60;98.20;;;;;;4999405;28;20504;-79
2023/10/09 07:52:21;;;;;;;1.50;0.90;;;17.70;98.20;;;;;;4998251;28;20574;-79
2023/10/09 07:54:52;;;;;;;1.57;1.10;;;17.70;98.20;;;;;;4996165;28;20544;-80
2023/10/09 07:57:25;;;;;;;1.53;1.00;;;17.70;98.20;;;;;;4998752;28;20479;-80
2023/10/09 08:00:00;;;;;;;1.57;0.90;;;17.70;98.20;;;;;;4998036;28;20462;-80
2023/10/09 08:02:36;;;;;;;1.50;0.90;;;17.80;98.20;;;;;;4999496;28;20527;-80
2023/10/09 08:05:18;;;;;;;1.57;0.93;;;17.80;98.20;;;;;;5001828;28;20481;-80
2023/10/09 08:07:54;;;;;;;1.50;0.90;;;17.80;98.20;;;;;;5003043;28;20472;-81
2023/10/09 08:16:03;;;;;;;1.50;0.90;;;18.00;98.20;;;;;;5099524;27;20567;-81
2023/10/09 08:18:31;;;;;;;1.53;0.90;;;18.10;98.20;;;;;;5097701;28;20911;-81
2023/10/09 08:23:49;;;;;;;1.50;0.90;;;18.20;98.20;;;;;;5094262;28;20564;-82
2023/10/09 08:26:28;;;;;;;1.50;0.90;;;18.30;98.20;;;;;;5080322;28;20482;-81
2023/10/09 08:29:15;;;;;;;1.50;0.90;;;18.30;98.20;;;;;;5092768;28;20846;-82
2023/10/09 08:31:56;;;;;;;1.50;0.90;;;18.40;98.20;;;;;;5083097;28;20586;-81
2023/10/09 08:34:25;;;;;;;1.50;1.00;;;18.40;98.20;;;;;;5090499;28;20571;-82
2023/10/09 08:36:55;;;;;;;1.50;0.90;;;18.50;98.20;;;;;;5081147;28;20517;-81
2023/10/09 08:39:33;;;;;;;1.50;0.93;;;18.50;98.20;;;;;;5087996;28;20956;-81
2023/10/09 08:42:01;;;;;;;1.90;1.17;;;18.60;98.20;;;;;;5079598;28;20472;-82
2023/10/09 08:44:31;;;;;;;1.50;0.90;;;18.70;98.20;;;;;;5083734;28;20847;-82
2023/10/09 08:47:00;;;;;;;1.50;0.90;;;18.80;98.20;;;;;;5064216;28;20484;-82
2023/10/09 08:49:28;;;;;;;1.50;1.10;;;19.00;98.20;;;;;;5075557;28;20552;-83
2023/10/09 08:52:32;;;;;;;1.50;1.00;;;19.00;98.20;;;;;;5079379;28;20483;-82
2023/10/09 08:54:58;;;;;;;1.50;0.90;;;19.10;98.20;;;;;;5052140;28;20580;-82
2023/10/09 08:57:27;;;;;;;1.50;0.90;;;19.20;98.20;;;;;;5081315;28;20468;-83
2023/10/09 08:59:54;;;;;;;1.50;0.90;;;19.30;98.20;;;;;;5079062;28;20491;-84
2023/10/09 09:02:23;;;;;;;1.50;0.90;;;19.30;98.20;;;;;;5081026;28;20778;-84
2023/10/09 09:04:50;;;;;;;1.50;0.90;;;19.30;98.20;;;;;;5076477;28;20459;-83
2023/10/09 09:07:28;;;;;;;1.50;0.90;;;19.30;98.20;;;;;;5065648;28;20484;-83
2023/10/09 09:09:57;;;;;;;1.50;0.90;;;19.40;98.20;;;;;;5072839;28;20453;-82
2023/10/09 09:12:24;;;;;;;1.50;0.90;;;19.40;98.20;;;;;;5063340;28;20469;-83
2023/10/09 09:14:52;;;;;;;1.50;0.93;;;19.40;98.20;;;;;;5078419;28;20485;-82
2023/10/09 09:17:30;;;;;;;1.50;0.90;;;19.50;98.20;;;;;;5071247;28;20485;-83
2023/10/09 09:19:57;;;;;;;1.50;0.90;;;19.60;98.20;;;;;;5082089;28;20525;-83
2023/10/09 09:22:26;;;;;;;1.50;0.90;;;19.60;98.20;;;;;;5085636;28;21097;-82
2023/10/09 09:25:03;;;;;;;1.50;0.97;;;19.70;98.20;;;;;;5085686;28;20555;-83
2023/10/09 09:27:52;;;;;;;1.50;0.90;;;19.70;98.20;;;;;;5072147;28;20515;-83
2023/10/09 09:30:31;;;;;;;1.50;0.90;;;19.80;98.20;;;;;;5065969;28;20547;-83
2023/10/09 09:33:16;;;;;;;1.50;0.90;;;19.90;98.20;;;;;;5061196;28;20500;-84
2023/10/09 09:36:02;;;;;;;1.50;0.90;;;20.00;98.20;;;;;;5061360;28;20493;-84
2023/10/09 09:38:47;;;;;;;1.50;0.90;;;20.10;98.20;;;;;;5053321;28;20560;-84
2023/10/09 09:41:26;;;;;;;1.50;0.90;;;20.10;98.20;;;;;;5058987;28;20878;-85
2023/10/09 09:44:18;;;;;;;1.50;0.90;;;20.30;98.20;;;;;;5073326;28;20516;-84
2023/10/09 09:46:46;;;;;;;1.57;1.00;;;20.50;98.20;;;;;;5061627;28;20981;-84
2023/10/09 09:49:21;;;;;;;1.50;0.90;;;20.80;98.20;;;;;;5073978;28;20449;-84
2023/10/09 09:51:57;;;;;;;1.50;0.90;;;21.00;98.20;;;;;;5061505;28;20490;-82
2023/10/09 09:54:33;;;;;;;1.50;0.90;;;21.10;98.20;;;;;;5071127;28;20490;-82
2023/10/09 09:57:10;;;;;;;1.50;0.90;;;21.20;98.20;;;;;;5064500;28;20477;-82
2023/10/09 09:59:57;;;;;;;1.50;0.90;;;21.30;98.20;;;;;;5067494;28;20537;-82
2023/10/09 10:02:49;;;;;;;1.80;1.43;;;21.40;98.20;;;;;;5055166;28;20473;-83
2023/10/09 10:05:33;;;;;;;1.50;0.90;;;21.50;98.20;;;;;;5063075;28;20474;-82
2023/10/09 10:08:12;;;;;;;1.50;0.90;;;21.50;98.20;;;;;;5051711;28;20465;-83
2023/10/09 10:10:57;;;;;;;1.50;0.90;;;21.60;98.20;;;;;;5056713;28;20553;-83
2023/10/09 10:17:16;;;;;;;1.50;0.90;;;21.80;98.20;;;;;;5013484;28;20470;-82
2023/10/09 10:29:46;;;;;;;1.50;0.87;;;22.10;98.20;;;;;;5043856;28;20455;-85
2023/10/09 10:32:20;;;;;;;1.50;0.90;;;22.20;98.20;;;;;;5041541;28;20482;-84
2023/10/09 10:38:11;;;;;;;1.50;0.90;;;22.30;98.20;;;;;;5036038;28;21096;-85
2023/10/09 10:40:57;;;;;;;1.50;0.90;;;22.30;98.20;;;;;;5043590;28;20466;-84
2023/10/09 10:43:54;;;;;;;1.50;0.90;;;22.30;98.20;;;;;;5033453;28;20481;-84
2023/10/09 10:52:14;;;;;;;1.43;0.90;;;22.30;98.20;;;;;;5050861;28;20564;-84
2023/10/09 10:55:05;;;;;;;1.50;0.90;;;22.30;98.20;;;;;;5060203;28;20485;-84
2023/10/09 10:57:55;;;;;;;1.50;0.90;;;22.40;98.20;;;;;;5040021;23;20499;-85
2023/10/09 11:05:56;;;;;;;1.50;0.90;;;22.40;98.20;;;;;;4965758;28;20470;-84
2023/10/09 11:08:32;;;;;;;1.47;1.00;;;22.40;98.20;;;;;;4981002;28;20597;-84
2023/10/09 11:11:15;;;;;;;1.50;0.90;;;22.50;98.20;;;;;;4963077;28;20477;-85
2023/10/09 11:13:57;;;;;;;1.50;0.90;;;22.50;98.20;;;;;;4985545;28;20477;-85
2023/10/09 11:16:41;;;;;;;1.43;0.90;;;22.50;98.20;;;;;;4969647;28;20481;-85
2023/10/09 11:19:22;;;;;;;1.43;0.90;;;22.50;98.20;;;;;;4982142;28;20493;-84
2023/10/09 11:21:58;;;;;;;1.50;0.83;;;22.50;98.20;;;;;;4974200;28;20588;-85
2023/10/09 11:24:26;;;;;;;1.47;0.90;;;22.50;98.20;;;;;;4977324;28;20490;-85
2023/10/09 11:26:56;;;;;;;1.60;1.20;;;22.50;98.20;;;;;;4971604;28;20564;-85
2023/10/09 11:30:12;;;;;;;1.40;0.90;;;22.50;98.20;;;;;;4978809;28;20455;-85
2023/10/09 11:33:04;;;;;;;1.47;0.90;;;22.50;98.20;;;;;;4929104;29;20500;-84
2023/10/09 11:35:34;;;;;;;1.50;0.90;;;22.40;98.20;;;;;;4979620;28;20482;-85
2023/10/09 11:38:10;;;;;;;;;;;;;;;;;;;;;
2023/10/09 11:41:05;;;;;;;1.50;0.90;;;22.50;98.20;;;;;;4968503;28;20557;-86
2023/10/09 11:43:51;;;;;;;1.50;0.90;;;22.50;98.20;;;;;;4957027;28;20481;-84
2023/10/09 11:46:36;;;;;;;1.43;0.90;;;22.50;98.20;;;;;;4965812;28;20918;-84
2023/10/09 11:52:31;;;;;;;1.47;0.90;;;22.60;98.20;;;;;;4967241;28;20547;-82
2023/10/09 11:59:16;;;;;;;1.47;0.90;;;22.80;98.20;;;;;;4918390;28;20538;-81
2023/10/09 12:08:08;;;;;;;1.50;0.90;;;23.00;98.20;;;;;;4909297;29;20681;-83
2023/10/09 12:10:38;;;;;;;1.47;0.90;;;23.00;98.20;;;;;;4932813;29;21018;-83
2023/10/09 12:13:09;;;;;;;1.50;0.90;;;23.00;98.20;;;;;;4948642;28;20555;-82
2023/10/09 12:15:39;;;;;;;1.47;0.90;;;23.00;98.20;;;;;;4972388;28;20533;-85
2023/10/09 12:18:09;;;;;;;1.50;0.90;;;23.10;98.20;;;;;;4969773;28;20485;-82
2023/10/09 12:20:37;;;;;;;1.47;0.90;;;23.10;98.20;;;;;;4969948;28;20458;-83
2023/10/09 12:23:13;;;;;;;1.47;0.90;;;23.20;98.20;;;;;;4970448;28;20579;-84
2023/10/09 12:25:40;;;;;;;1.50;0.90;;;23.30;98.20;;;;;;4968700;28;20527;-85
2023/10/09 12:28:09;;;;;;;1.47;0.90;;;23.40;98.20;;;;;;4978388;28;20540;-83
2023/10/09 12:30:39;;;;;;;1.47;0.90;;;23.40;98.20;;;;;;4969863;28;20521;-84
2023/10/09 12:33:08;;;;;;;1.50;0.90;;;23.40;98.20;;;;;;4980323;28;20686;-83
2023/10/09 12:35:39;;;;;;;1.50;0.90;;;23.40;98.20;;;;;;4969010;28;20467;-84
2023/10/09 12:38:08;;;;;;;1.47;0.90;;;23.40;98.20;;;;;;4972610;28;20489;-82
2023/10/09 12:40:35;;;;;;;1.47;0.87;;;23.40;98.20;;;;;;4973447;28;20541;-83
2023/10/09 12:43:02;;;;;;;1.40;0.80;;;23.40;98.20;;;;;;4977772;28;20539;-82
2023/10/09 12:45:32;;;;;;;1.43;0.90;;;23.30;98.20;;;;;;4969270;28;20500;-84
2023/10/09 12:48:02;;;;;;;1.43;0.90;;;23.20;98.20;;;;;;4977151;28;20488;-85
2023/10/09 12:50:29;;;;;;;1.43;0.90;;;23.20;98.20;;;;;;4963302;28;20530;-83
2023/10/09 12:53:01;;;;;;;1.43;0.90;;;23.20;98.20;;;;;;4976551;28;20480;-83
2023/10/09 12:55:32;;;;;;;1.47;0.90;;;23.20;98.20;;;;;;4965307;28;20482;-84
2023/10/09 12:58:06;;;;;;;1.47;0.90;;;23.10;98.20;;;;;;4969510;28;20544;-79
2023/10/09 13:00:36;;;;;;;1.50;0.90;;;23.00;98.20;;;;;;4965347;28;20842;-81
2023/10/09 13:03:16;;;;;;;1.50;0.87;;;23.00;98.20;;;;;;4980564;28;20479;-81
2023/10/09 13:05:51;;;;;;;1.47;0.90;;;22.90;98.20;;;;;;4968213;28;20529;-80
2023/10/09 13:08:21;;;;;;;1.47;0.90;;;22.90;98.20;;;;;;4954325;28;21035;-82
2023/10/09 13:10:58;;;;;;;1.47;0.80;;;22.90;98.20;;;;;;4954437;28;21024;-82
2023/10/09 13:13:26;;;;;;;1.50;0.90;;;22.90;98.20;;;;;;4982962;28;20473;-83
2023/10/09 13:15:53;;;;;;;1.50;0.90;;;22.90;98.20;;;;;;4959190;28;20494;-83
2023/10/09 13:18:20;;;;;;;1.50;0.90;;;22.90;98.20;;;;;;4978770;28;21040;-83
2023/10/09 13:21:04;;;;;;;1.47;0.90;;;22.90;98.20;;;;;;4961319;28;20492;-81
2023/10/09 13:23:39;;;;;;;1.47;0.90;;;22.90;98.20;;;;;;4982521;28;20568;-81
2023/10/09 13:26:17;;;;;;;1.50;0.90;;;22.80;98.20;;;;;;4955309;28;20477;-82
2023/10/09 13:28:45;;;;;;;1.47;0.90;;;22.80;98.20;;;;;;4977144;28;20486;-82
2023/10/09 13:31:14;;;;;;;3.10;2.90;;;22.80;98.20;;;;;;4963306;28;20484;-83
2023/10/09 13:33:41;;;;;;;1.50;0.90;;;22.70;98.20;;;;;;4974012;28;20494;-82
2023/10/09 13:36:16;;;;;;;1.47;0.87;;;22.70;98.20;;;;;;4957100;28;20508;-81
2023/10/09 13:38:44;;;;;;;1.47;0.90;;;22.70;98.20;;;;;;4971465;28;20516;-81
2023/10/09 13:41:14;;;;;;;1.47;0.90;;;22.70;98.20;;;;;;4964586;28;20893;-80
2023/10/09 13:43:42;;;;;;;1.47;0.80;;;22.70;98.20;;;;;;4985262;28;20853;-82
2023/10/09 13:46:11;;;;;;;1.50;0.90;;;22.60;98.20;;;;;;4962087;28;20504;-84
2023/10/09 13:48:40;;;;;;;1.47;0.90;;;22.60;98.20;;;;;;4985350;28;20490;-82
2023/10/09 13:51:13;;;;;;;1.47;0.90;;;22.60;98.20;;;;;;4961388;28;20532;-82
2023/10/09 13:53:44;;;;;;;1.47;0.87;;;22.70;98.20;;;;;;4973908;28;20867;-83
2023/10/09 13:56:18;;;;;;;1.47;0.90;;;22.80;98.20;;;;;;4963781;28;20539;-84
2023/10/09 13:58:45;;;;;;;1.50;0.90;;;22.90;98.20;;;;;;4984614;28;21154;-81
2023/10/09 14:01:20;;;;;;;1.47;0.90;;;23.10;98.20;;;;;;4961959;28;20804;-81
2023/10/09 14:03:49;;;;;;;1.43;0.90;;;23.20;98.20;;;;;;4987066;28;21011;-81
2023/10/09 14:06:19;;;;;;;1.70;1.43;;;23.20;98.20;;;;;;4961778;28;20533;-82
2023/10/09 14:08:46;;;;;;;1.47;0.90;;;23.20;98.20;;;;;;4968720;28;20463;-82
2023/10/09 14:11:14;;;;;;;1.43;0.90;;;23.20;98.20;;;;;;4960815;28;20540;-80
2023/10/09 14:13:41;;;;;;;1.47;0.90;;;23.10;98.20;;;;;;4982412;28;20467;-83
2023/10/09 14:16:23;;;;;;;1.43;0.87;;;23.10;98.20;;;;;;4965852;28;20880;-81
2023/10/09 14:18:53;;;;;;;1.50;0.90;;;23.10;98.20;;;;;;4978978;28;20557;-83
2023/10/09 14:21:21;;;;;;;1.50;0.90;;;23.10;98.20;;;;;;4964458;28;20493;-83
2023/10/09 14:23:48;;;;;;;1.43;0.80;;;23.10;98.20;;;;;;4978868;28;20875;-81
2023/10/09 14:26:18;;;;;;;1.47;0.90;;;23.10;98.20;;;;;;4966659;28;20495;-80
2023/10/09 14:28:45;;;;;;;1.80;1.27;;;23.20;98.20;;;;;;4980508;28;20626;-83
2023/10/09 14:31:14;;;;;;;1.40;0.83;;;23.20;98.20;;;;;;4962484;28;21082;-80
2023/10/09 14:33:43;;;;;;;1.50;0.90;;;23.30;98.20;;;;;;4982770;28;20474;-81
2023/10/09 14:36:14;;;;;;;1.47;0.90;;;23.30;98.20;;;;;;4958642;28;21035;-81
2023/10/09 14:38:42;;;;;;;1.43;0.90;;;23.20;98.20;;;;;;4981082;28;20482;-81
2023/10/09 14:41:11;;;;;;;1.50;0.80;;;23.30;98.20;;;;;;4970755;28;20496;-80
2023/10/09 14:43:53;;;;;;;1.43;0.83;;;23.20;98.20;;;;;;4987170;28;20462;-81
2023/10/09 14:46:25;;;;;;;1.50;0.90;;;23.20;98.20;;;;;;4961452;28;20482;-81
2023/10/09 14:48:53;;;;;;;1.50;0.90;;;23.20;98.20;;;;;;4975562;28;20458;-81
2023/10/09 14:51:26;;;;;;;1.47;0.90;;;23.10;98.20;;;;;;4967890;28;20484;-83
2023/10/09 14:53:57;;;;;;;1.50;0.90;;;23.00;98.20;;;;;;4982255;28;20480;-81
2023/10/09 14:56:28;;;;;;;1.50;0.90;;;22.90;98.20;;;;;;4961629;28;20484;-83
2023/10/09 14:58:58;;;;;;;1.47;0.90;;;22.80;98.20;;;;;;4977680;28;20841;-81